Bonney Lake, WA (98391)

3:20 PM PDT on August 27, 2014 (GMT -0700)
Emerald Hills | Change Station
CLOSE
Current Station
Personal Weather Station
Location: Bonney Lake, WA
Elevation: 560 ft
Nearby Weather Stations

Elev 560 ft 47.20 °N, 122.17 °W | Updated 3 seconds ago

Clear
Clear
86.0 °F
Feels Like 87 °F
N
3.0
Wind Variable Wind from SSW
Gusts 4.0 mph

Today
High -- | Low -- °F
--% Chance of Precip.
Yesterday
High -- | Low -- °F
Precip. -- in
6:21 AM 7:58 PM
Waxing Crescent, 5% visible
Pressure 30.03 in
Visibility 10.0 miles
Clouds Clear
Heat Index 87 °F
Dew Point 63 °F
Humidity 46%
Rainfall 0.00 in
Snow Depth Not available.
UV 3.6 out of 12
Pollen 3.80 out of 12
PM2.5 Good
Flu Activity Not available.
METAR KTCM 272158Z AUTO 06008KT 10SM CLR 29/15 A3002 RMK AO2 SLP168 T02870147 $

More Conditions Fewer Conditions

Pressure 30.03 in
Visibility 10.0 miles
Clouds Clear
Heat Index 87 °F
Dew Point 63 °F
Humidity 46%
Rainfall 0.00 in
Snow Depth Not available.
UV 3.6 out of 12
Pollen 3.80 out of 12
PM2.5 Good
Flu Activity Not available.
METAR KTCM 272158Z AUTO 06008KT 10SM CLR 29/15 A3002 RMK AO2 SLP168 T02870147 $

More Conditions Fewer Conditions

10-Day Weather Forecast

Almanac

Astronomy

Aug. 27, 2014 Rise Set
Actual Time 6:21 AM PDT 7:58 PM PDT
Civil Twilight 5:49 AM PDT 8:30 PM PDT
Nautical Twilight 5:10 AM PDT 9:09 PM PDT
Astronomical Twilight 4:27 AM PDT 9:51 PM PDT
Moon 8:33 AM PDT 8:40 PM PDT
Length of Visible Light 14h 40m
Length of Day
13h 36m
Tomorrow will be 3m 13s shorter.
Waxing Crescent, 5% of the Moon is Illuminated
Today
Waxing Crescent
Sep 2
First Quarter
Sep 8
Full
Sep 15
Last Quarter
Sep 24
New

Today's Extremes

State Highs State Lows

Community

WunderPhotos

Upload Photos

1,747,806 photos uploaded!

Nearby

Air Quality

  Air Quality AQ Index Pollutant
Yesterday Moderate
PM2.5
Yesterday Good
OZONE
Current Good
PM2.5
Wednesday Good
OZONE
Wednesday Good
PM2.5
Thursday Good
OZONE
Thursday Good
PM2.5
Friday Good
OZONE
Friday Good
PM2.5
Saturday Good
OZONE
Saturday Good
PM2.5

Snow Depth

Station Depth Elevation
Dungeness 0 in 4100 ft
Surprise Lakes 0 in 4250 ft
Grouse Camp 0 in 5380 ft
Trough 0 in 5300 ft
Thunder Basin 1 in 4200 ft

Earthquake Activity

City Distance Mag. Time & Date
No recent earthquake activity has been reported nearby.
Minimum magnitude displayed is 2.5.

Coastal Water Temperatures

Place Temperature
Port Townsend, WA 53.1 °F
Seattle, WA 57.0 °F
Friday Harbor, WA 54.0 °F
Tacoma, WA 55.0 °F

Nearby Weather Stations